createdAt,value
2022-12-17T00:02:14.510Z,114.23
2022-12-17T00:05:00.435Z,120.10
2022-12-17T00:07:46.158Z,117.53
2022-12-17T00:10:31.871Z,118.90
2022-12-17T00:13:17.842Z,113.10
2022-12-17T00:16:11.205Z,123.40
2022-12-17T00:18:57.578Z,120.97
2022-12-17T00:21:43.624Z,115.57
2022-12-17T00:24:29.307Z,122.20
2022-12-17T00:27:15.120Z,115.00
2022-12-17T00:30:01.060Z,118.90
2022-12-17T00:32:47.211Z,114.20
2022-12-17T00:35:33.110Z,122.83
2022-12-17T00:38:19.960Z,121.17
2022-12-17T00:41:11.541Z,116.63
2022-12-17T00:43:57.465Z,119.43
2022-12-17T00:46:43.698Z,118.57
2022-12-17T00:49:29.991Z,114.67
2022-12-17T00:52:15.968Z,112.43
2022-12-17T00:55:02.015Z,117.57
2022-12-17T00:57:47.919Z,117.43
2022-12-17T01:00:34.416Z,115.70
2022-12-17T01:03:30.196Z,113.80
2022-12-17T01:06:21.766Z,115.63
2022-12-17T01:09:07.949Z,114.80
2022-12-17T01:11:56.501Z,115.07
2022-12-17T01:14:44.446Z,116.97
2022-12-17T01:17:30.992Z,113.93
2022-12-17T01:20:17.283Z,121.17
2022-12-17T01:23:05.168Z,115.57
2022-12-17T01:25:51.030Z,113.13
2022-12-17T01:28:44.245Z,117.63
2022-12-17T01:31:34.935Z,115.53
2022-12-17T01:34:21.636Z,121.17
2022-12-17T01:37:07.800Z,128.93
2022-12-17T01:39:54.002Z,124.00
2022-12-17T01:42:40.014Z,123.63
2022-12-17T01:45:31.307Z,126.07
2022-12-17T01:48:29.450Z,123.60
2022-12-17T01:51:16.796Z,123.93
2022-12-17T01:54:08.902Z,115.67
2022-12-17T01:56:59.799Z,120.90
2022-12-17T02:00:23.514Z,120.87
2022-12-17T02:03:09.843Z,119.43
2022-12-17T02:06:26.579Z,119.57
2022-12-17T02:09:21.004Z,121.30
2022-12-17T02:12:38.156Z,119.23
2022-12-17T02:15:39.213Z,123.53
2022-12-17T02:18:36.056Z,125.57
2022-12-17T02:21:24.151Z,125.03
2022-12-17T02:24:28.404Z,129.10
2022-12-17T02:27:25.124Z,128.53
2022-12-17T02:30:19.959Z,120.77
2022-12-17T02:33:08.267Z,120.40
2022-12-17T02:36:03.103Z,122.87
2022-12-17T02:38:50.922Z,123.83
2022-12-17T02:41:48.741Z,126.13
2022-12-17T02:44:37.915Z,126.17
2022-12-17T02:47:27.193Z,123.67
2022-12-17T02:50:13.959Z,123.90
2022-12-17T02:53:05.017Z,125.67
2022-12-17T02:55:52.474Z,123.30
2022-12-17T02:58:38.831Z,127.13
2022-12-17T03:01:25.810Z,125.40
2022-12-17T03:04:12.036Z,134.53
2022-12-17T03:06:58.280Z,125.80
2022-12-17T03:09:44.399Z,125.93
2022-12-17T03:12:30.176Z,130.33
2022-12-17T03:15:15.972Z,131.63
2022-12-17T03:18:01.784Z,130.07
2022-12-17T03:20:47.735Z,133.67
2022-12-17T03:23:34.049Z,126.87
2022-12-17T03:26:22.768Z,125.73
2022-12-17T03:29:08.965Z,131.67
2022-12-17T03:31:55.167Z,132.50
2022-12-17T03:34:41.290Z,124.77
2022-12-17T03:37:27.497Z,125.97
2022-12-17T03:40:13.283Z,125.80
2022-12-17T03:43:02.101Z,122.23
2022-12-17T03:45:48.166Z,120.03
2022-12-17T03:48:34.824Z,118.80
2022-12-17T03:51:20.913Z,118.63
2022-12-17T03:54:07.309Z,122.67
2022-12-17T03:56:53.245Z,128.10
2022-12-17T03:59:49.939Z,125.70
2022-12-17T04:02:35.841Z,123.37
2022-12-17T04:05:21.955Z,118.13
2022-12-17T04:08:08.175Z,116.77
2022-12-17T04:10:54.134Z,119.53
2022-12-17T04:13:43.059Z,115.20
2022-12-17T04:16:29.389Z,117.70
2022-12-17T04:19:15.128Z,111.90
2022-12-17T04:22:01.092Z,103.17
2022-12-17T04:24:47.272Z,107.83
2022-12-17T04:27:32.884Z,102.77
2022-12-17T04:30:18.737Z,107.10
2022-12-17T04:33:04.969Z,110.43
2022-12-17T04:35:51.080Z,110.67
2022-12-17T04:38:37.282Z,102.07
2022-12-17T04:41:23.129Z,108.27
2022-12-17T04:44:09.114Z,108.97
2022-12-17T04:46:55.425Z,107.60
2022-12-17T04:49:41.321Z,109.27
2022-12-17T04:52:27.210Z,103.57
2022-12-17T04:55:13.038Z,105.27
2022-12-17T04:57:58.836Z,112.43
2022-12-17T05:00:44.800Z,106.67
2022-12-17T05:03:34.302Z,108.03
2022-12-17T05:06:21.077Z,111.07
2022-12-17T05:09:07.548Z,109.63
2022-12-17T05:11:53.798Z,104.07
2022-12-17T05:14:39.841Z,102.53
2022-12-17T05:17:25.843Z,105.70
2022-12-17T05:20:11.695Z,105.53
2022-12-17T05:22:57.504Z,99.57
2022-12-17T05:25:43.468Z,100.90
2022-12-17T05:28:29.411Z,96.13
2022-12-17T05:31:15.787Z,97.00
2022-12-17T05:34:01.854Z,100.97
2022-12-17T05:36:47.720Z,97.03
2022-12-17T05:39:33.608Z,98.37
2022-12-17T05:42:19.295Z,101.57
2022-12-17T05:45:05.118Z,100.20
2022-12-17T05:47:51.381Z,107.20
2022-12-17T05:50:37.163Z,104.77
2022-12-17T05:53:24.252Z,103.87
2022-12-17T05:56:11.668Z,99.70
2022-12-17T05:58:58.350Z,103.77
2022-12-17T06:01:44.736Z,106.10
2022-12-17T06:04:31.127Z,99.20
2022-12-17T06:07:17.094Z,101.00
2022-12-17T06:10:02.995Z,104.20
2022-12-17T06:12:48.949Z,104.90
2022-12-17T06:15:35.836Z,100.20
2022-12-17T06:18:22.023Z,100.27
2022-12-17T06:21:07.831Z,103.87
2022-12-17T06:23:53.927Z,108.47
2022-12-17T06:26:39.940Z,99.10
2022-12-17T06:29:28.839Z,103.83
2022-12-17T06:32:14.630Z,105.00
2022-12-17T06:35:00.477Z,98.03
2022-12-17T06:37:46.622Z,109.20
2022-12-17T06:40:32.650Z,101.43
2022-12-17T06:43:18.512Z,96.87
2022-12-17T06:46:04.305Z,97.93
2022-12-17T06:49:01.096Z,91.43
2022-12-17T06:51:47.033Z,95.23
2022-12-17T06:54:32.840Z,94.73
2022-12-17T06:57:18.955Z,92.90
2022-12-17T07:00:04.777Z,92.13
2022-12-17T07:02:51.203Z,91.00
2022-12-17T07:05:37.144Z,93.97
2022-12-17T07:08:23.763Z,84.47
2022-12-17T07:11:09.541Z,86.00
2022-12-17T07:13:56.325Z,87.57
2022-12-17T07:16:42.252Z,84.60
2022-12-17T07:19:28.383Z,82.70
2022-12-17T07:22:15.111Z,83.50
2022-12-17T07:25:01.047Z,87.00
2022-12-17T07:27:47.076Z,83.97
2022-12-17T07:30:33.273Z,91.13
2022-12-17T07:33:21.958Z,88.43
2022-12-17T07:36:08.140Z,85.93
2022-12-17T07:38:54.185Z,85.10
2022-12-17T07:41:40.020Z,90.33
2022-12-17T07:44:25.852Z,83.10
2022-12-17T07:47:12.119Z,87.03
2022-12-17T07:49:58.011Z,82.97
2022-12-17T07:52:43.729Z,80.40
2022-12-17T07:55:29.681Z,80.97
2022-12-17T07:58:21.718Z,83.30
2022-12-17T08:01:12.139Z,89.00
2022-12-17T08:04:02.643Z,80.87
2022-12-17T08:06:48.330Z,79.53
2022-12-17T08:09:34.182Z,86.13
2022-12-17T08:12:20.360Z,83.63
2022-12-17T08:15:06.175Z,84.93
2022-12-17T08:17:52.188Z,80.20
2022-12-17T08:20:38.355Z,86.07
2022-12-17T08:23:25.150Z,84.03
2022-12-17T08:26:11.489Z,86.43
2022-12-17T08:28:57.562Z,90.93
2022-12-17T08:31:44.471Z,90.87
2022-12-17T08:34:30.647Z,91.07
2022-12-17T08:37:16.380Z,84.77
2022-12-17T08:40:02.448Z,83.40
2022-12-17T08:42:48.559Z,84.33
2022-12-17T08:45:34.512Z,92.77
2022-12-17T08:48:27.867Z,90.10
2022-12-17T08:51:13.698Z,88.47
2022-12-17T08:53:59.565Z,90.50
2022-12-17T08:56:45.759Z,88.30
2022-12-17T08:59:31.645Z,91.47
2022-12-17T09:02:17.727Z,85.00
2022-12-17T09:05:04.016Z,87.17
2022-12-17T09:07:50.005Z,81.43
2022-12-17T09:10:35.781Z,92.87
2022-12-17T09:13:23.233Z,91.73
2022-12-17T09:16:16.061Z,85.93
2022-12-17T09:19:02.486Z,82.67
2022-12-17T09:21:50.543Z,89.67
2022-12-17T09:24:36.784Z,92.67
2022-12-17T09:27:39.932Z,87.83
2022-12-17T09:30:26.645Z,91.00
2022-12-17T09:33:12.804Z,87.33
2022-12-17T09:35:59.363Z,91.90
2022-12-17T09:38:45.348Z,86.03
2022-12-17T09:41:52.042Z,84.47
2022-12-17T09:44:52.529Z,81.40
2022-12-17T09:48:12.202Z,86.30
2022-12-17T09:51:18.293Z,79.67
2022-12-17T09:54:12.570Z,77.03
2022-12-17T09:57:01.272Z,81.50
2022-12-17T09:59:52.506Z,78.43
2022-12-17T10:02:50.283Z,82.50
2022-12-17T10:05:48.218Z,73.73
2022-12-17T10:08:39.680Z,79.37
2022-12-17T10:11:47.792Z,78.10
2022-12-17T10:14:42.623Z,76.67
2022-12-17T10:17:46.569Z,79.20
2022-12-17T10:20:49.756Z,79.47
2022-12-17T10:23:48.067Z,78.50
2022-12-17T10:26:47.056Z,80.07
2022-12-17T10:29:42.547Z,80.97
2022-12-17T10:32:39.748Z,79.70
2022-12-17T10:35:54.516Z,84.90
2022-12-17T10:38:47.272Z,86.73
2022-12-17T10:41:48.267Z,88.53
2022-12-17T10:44:50.551Z,97.47
2022-12-17T10:47:47.128Z,82.00
2022-12-17T10:50:41.157Z,83.00
2022-12-17T10:53:42.502Z,78.83
2022-12-17T10:56:42.227Z,80.10
2022-12-17T10:59:46.608Z,89.33
2022-12-17T11:02:46.631Z,86.10
2022-12-17T11:05:47.784Z,82.40
2022-12-17T11:08:42.997Z,85.23
2022-12-17T11:11:31.692Z,82.03
2022-12-17T11:14:20.329Z,90.97
2022-12-17T11:17:14.172Z,94.10
2022-12-17T11:20:13.223Z,87.27
2022-12-17T11:23:10.516Z,88.10
2022-12-17T11:26:23.933Z,87.80
2022-12-17T11:29:10.069Z,79.63
2022-12-17T11:32:01.977Z,98.90
2022-12-17T11:34:47.912Z,89.63
2022-12-17T11:37:39.758Z,89.23
2022-12-17T11:40:56.111Z,85.00
2022-12-17T11:43:50.964Z,90.43
2022-12-17T11:46:51.313Z,87.33
2022-12-17T11:49:47.956Z,94.13
2022-12-17T11:53:04.319Z,95.73
2022-12-17T11:56:36.157Z,83.10
2022-12-17T11:59:52.676Z,96.90
2022-12-17T12:03:26.584Z,94.60
2022-12-17T12:06:18.209Z,87.70
2022-12-17T12:09:29.106Z,87.87
2022-12-17T12:12:31.185Z,89.33
2022-12-17T12:16:10.385Z,86.53
2022-12-17T12:19:14.137Z,87.83
2022-12-17T12:23:00.575Z,83.70
2022-12-17T12:26:32.819Z,90.23
2022-12-17T12:29:39.136Z,85.53
2022-12-17T12:32:57.393Z,86.90
2022-12-17T12:35:47.180Z,79.33
2022-12-17T12:38:51.729Z,74.03
2022-12-17T12:41:48.144Z,70.67
2022-12-17T12:45:12.400Z,72.33
2022-12-17T12:48:39.730Z,72.77
2022-12-17T12:51:48.621Z,70.73
2022-12-17T12:54:49.655Z,66.07
2022-12-17T12:57:56.668Z,68.87
2022-12-17T13:00:57.810Z,66.50
2022-12-17T13:03:55.318Z,81.30
2022-12-17T13:06:40.713Z,74.43
2022-12-17T13:09:17.108Z,71.43
2022-12-17T13:11:46.648Z,72.13
2022-12-17T13:14:33.386Z,78.97
2022-12-17T13:17:09.377Z,72.00
2022-12-17T13:19:47.410Z,77.10
2022-12-17T13:22:23.793Z,72.07
2022-12-17T13:24:55.514Z,75.40
2022-12-17T13:27:35.068Z,70.90
2022-12-17T13:30:17.782Z,72.10
2022-12-17T13:33:23.986Z,62.60
2022-12-17T13:36:26.228Z,62.43
2022-12-17T13:39:21.106Z,66.63
2022-12-17T13:41:57.136Z,67.67
2022-12-17T13:44:39.812Z,65.33
2022-12-17T13:47:28.540Z,59.87
2022-12-17T13:50:32.091Z,70.00
2022-12-17T13:52:47.158Z,57.40
2022-12-17T13:55:25.636Z,66.53
2022-12-17T13:57:54.441Z,57.80
2022-12-17T14:00:30.759Z,65.43
2022-12-17T14:02:58.410Z,58.60
2022-12-17T14:05:33.089Z,58.17
2022-12-17T14:08:03.054Z,56.13
2022-12-17T14:10:30.725Z,57.83
2022-12-17T14:13:18.191Z,57.13
2022-12-17T14:15:53.011Z,53.70
2022-12-17T14:18:21.952Z,54.43
2022-12-17T14:20:55.404Z,58.93
2022-12-17T14:23:31.920Z,53.63
2022-12-17T14:25:59.805Z,46.17
2022-12-17T14:28:50.308Z,48.63
2022-12-17T14:31:27.643Z,52.27
2022-12-17T14:34:11.630Z,50.67
2022-12-17T14:36:44.155Z,54.80
2022-12-17T14:39:30.411Z,55.30
2022-12-17T14:42:29.769Z,50.63
2022-12-17T14:45:28.203Z,54.50
2022-12-17T14:48:01.456Z,54.73
2022-12-17T14:50:36.070Z,47.83
2022-12-17T14:53:26.413Z,46.73
2022-12-17T14:56:00.307Z,56.83
2022-12-17T14:58:28.554Z,51.13
2022-12-17T15:01:12.994Z,50.47
2022-12-17T15:03:48.243Z,53.47
2022-12-17T15:06:20.653Z,58.90
2022-12-17T15:08:50.596Z,55.40
2022-12-17T15:11:22.695Z,52.70
2022-12-17T15:13:54.633Z,53.70
2022-12-17T15:16:24.506Z,54.87
2022-12-17T15:18:52.058Z,81.10
2022-12-17T15:21:20.202Z,72.80
2022-12-17T15:23:48.465Z,56.70
2022-12-17T15:26:17.480Z,88.70
2022-12-17T15:28:46.362Z,51.27
2022-12-17T15:31:17.724Z,51.13
2022-12-17T15:33:46.994Z,56.83
2022-12-17T15:36:14.477Z,52.07
2022-12-17T15:38:41.938Z,49.93
2022-12-17T15:41:27.939Z,51.50
2022-12-17T15:43:55.305Z,47.93
2022-12-17T15:46:22.932Z,53.13
2022-12-17T15:48:50.974Z,51.77
2022-12-17T15:51:21.233Z,52.27
2022-12-17T15:53:49.024Z,52.80
2022-12-17T15:56:34.994Z,68.90
2022-12-17T15:59:02.418Z,50.27
2022-12-17T16:01:29.919Z,61.47
2022-12-17T16:03:58.460Z,53.10
2022-12-17T16:06:26.351Z,53.87
2022-12-17T16:08:53.759Z,50.60
2022-12-17T16:11:21.162Z,65.30
2022-12-17T16:13:54.224Z,52.67
2022-12-17T16:16:23.084Z,45.97
2022-12-17T16:18:50.903Z,55.83
2022-12-17T16:21:18.650Z,52.07
2022-12-17T16:23:46.632Z,86.90
2022-12-17T16:26:14.134Z,71.97
2022-12-17T16:28:44.694Z,71.97
2022-12-17T16:31:15.563Z,83.67
2022-12-17T16:33:44.944Z,53.77
2022-12-17T16:36:16.458Z,101.00
2022-12-17T16:38:49.730Z,56.87
2022-12-17T16:41:18.425Z,54.40
2022-12-17T16:43:47.004Z,59.40
2022-12-17T16:46:34.462Z,72.90
2022-12-17T16:49:28.380Z,74.23
2022-12-17T16:51:57.716Z,53.77
2022-12-17T16:54:29.249Z,57.03
2022-12-17T16:56:56.848Z,62.93
2022-12-17T16:59:24.284Z,52.97
2022-12-17T17:01:52.908Z,47.10
2022-12-17T17:04:23.289Z,50.20
2022-12-17T17:06:54.997Z,46.03
2022-12-17T17:09:23.798Z,44.57
2022-12-17T17:11:52.256Z,50.80
2022-12-17T17:14:20.292Z,45.13
2022-12-17T17:16:47.728Z,46.30
2022-12-17T17:19:15.245Z,41.27
2022-12-17T17:21:49.117Z,45.53
2022-12-17T17:24:21.173Z,44.57
2022-12-17T17:26:50.378Z,47.30
2022-12-17T17:29:18.323Z,47.57
2022-12-17T17:32:10.524Z,45.07
2022-12-17T17:34:33.631Z,46.40
2022-12-17T17:37:01.000Z,43.87
2022-12-17T17:39:32.003Z,46.00
2022-12-17T17:42:00.308Z,43.67
2022-12-17T17:44:27.824Z,45.13
2022-12-17T17:46:55.342Z,44.40
2022-12-17T17:49:22.876Z,43.37
2022-12-17T17:54:39.718Z,43.00
2022-12-17T17:57:07.904Z,43.67
2022-12-17T17:59:35.448Z,46.80
2022-12-17T18:02:03.828Z,45.53
2022-12-17T18:04:32.244Z,40.10
2022-12-17T18:07:24.067Z,45.50
2022-12-17T18:09:47.075Z,44.60
2022-12-17T18:12:32.971Z,42.57
2022-12-17T18:15:17.850Z,44.00
2022-12-17T18:17:50.283Z,57.57
2022-12-17T18:20:18.410Z,44.43
2022-12-17T18:22:46.752Z,42.97
2022-12-17T18:25:15.959Z,43.13
2022-12-17T18:27:43.814Z,45.37
2022-12-17T18:30:12.039Z,41.80
2022-12-17T18:32:39.550Z,42.07
2022-12-17T18:35:07.837Z,43.60
2022-12-17T18:37:35.464Z,44.77
2022-12-17T18:40:03.843Z,47.17
2022-12-17T18:42:50.062Z,53.60
2022-12-17T18:45:17.587Z,326.10
2022-12-17T18:47:45.019Z,76.00
2022-12-17T18:50:13.430Z,44.00
2022-12-17T18:52:41.026Z,102.03
2022-12-17T18:55:11.717Z,46.27
2022-12-17T18:57:39.243Z,142.87
2022-12-17T19:00:07.668Z,334.13
2022-12-17T19:02:35.278Z,53.83
2022-12-17T19:05:02.743Z,68.60
2022-12-17T19:07:30.193Z,67.87
2022-12-17T19:09:57.604Z,56.00
2022-12-17T19:12:25.101Z,43.27
2022-12-17T19:14:52.479Z,39.93
2022-12-17T19:17:19.879Z,46.00
2022-12-17T19:19:48.276Z,46.10
2022-12-17T19:22:15.698Z,39.90
2022-12-17T19:24:43.113Z,44.13
2022-12-17T19:27:10.567Z,34.97
2022-12-17T19:29:37.986Z,40.60
2022-12-17T19:32:05.604Z,35.87
2022-12-17T19:34:35.269Z,43.77
2022-12-17T19:37:02.721Z,37.90
2022-12-17T19:39:30.191Z,36.60
2022-12-17T19:41:57.589Z,36.27
2022-12-17T19:44:25.332Z,38.40
2022-12-17T19:46:52.724Z,36.80
2022-12-17T19:49:20.148Z,33.67
2022-12-17T19:51:47.547Z,36.30
2022-12-17T19:54:15.625Z,37.90
2022-12-17T19:56:45.117Z,33.23
2022-12-17T19:59:13.785Z,32.97
2022-12-17T20:01:48.096Z,38.43
2022-12-17T20:04:16.834Z,35.70
2022-12-17T20:06:45.402Z,34.23
2022-12-17T20:09:14.580Z,36.93
2022-12-17T20:11:42.024Z,30.90
2022-12-17T20:14:18.041Z,32.10
2022-12-17T20:17:06.036Z,33.27
2022-12-17T20:19:34.859Z,30.33
2022-12-17T20:22:05.269Z,32.90
2022-12-17T20:24:33.179Z,29.73
2022-12-17T20:27:01.434Z,31.70
2022-12-17T20:29:29.532Z,34.17
2022-12-17T20:31:57.143Z,30.47
2022-12-17T20:34:25.633Z,28.37
2022-12-17T20:36:54.329Z,29.33
2022-12-17T20:39:27.240Z,26.43
2022-12-17T20:41:56.615Z,30.67
2022-12-17T20:44:24.136Z,28.17
2022-12-17T20:46:51.603Z,28.63
2022-12-17T20:49:19.224Z,25.57
2022-12-17T20:51:46.820Z,26.43
2022-12-17T20:54:14.238Z,29.33
2022-12-17T20:56:41.733Z,29.37
2022-12-17T20:59:14.767Z,31.23
2022-12-17T21:01:42.332Z,29.43
2022-12-17T21:04:12.049Z,32.20
2022-12-17T21:06:46.249Z,30.50
2022-12-17T21:09:16.168Z,33.60
2022-12-17T21:11:43.590Z,31.97
2022-12-17T21:14:17.287Z,29.77
2022-12-17T21:16:46.128Z,31.83
2022-12-17T21:19:18.147Z,34.20
2022-12-17T21:21:45.825Z,35.90
2022-12-17T21:24:13.271Z,32.33
2022-12-17T21:26:43.585Z,32.77
2022-12-17T21:29:12.160Z,36.77
2022-12-17T21:31:51.353Z,30.97
2022-12-17T21:34:23.075Z,31.00
2022-12-17T21:36:51.597Z,35.90
2022-12-17T21:39:20.467Z,34.73
2022-12-17T21:42:09.543Z,32.50
2022-12-17T21:44:37.467Z,29.23
2022-12-17T21:47:05.121Z,38.00
2022-12-17T21:49:32.578Z,39.60
2022-12-17T21:52:01.638Z,34.40
2022-12-17T21:54:29.165Z,40.60
2022-12-17T21:56:56.670Z,36.83
2022-12-17T21:59:24.104Z,41.37
2022-12-17T22:01:52.132Z,37.73
2022-12-17T22:04:19.710Z,39.80
2022-12-17T22:06:49.056Z,38.83
2022-12-17T22:09:26.833Z,43.50
2022-12-17T22:12:29.325Z,41.53
2022-12-17T22:14:56.677Z,40.97
2022-12-17T22:17:24.699Z,39.97
2022-12-17T22:19:52.186Z,44.10
2022-12-17T22:22:19.698Z,50.07
2022-12-17T22:24:47.103Z,45.20
2022-12-17T22:27:14.812Z,48.83
2022-12-17T22:30:00.954Z,51.13
2022-12-17T22:32:46.753Z,52.77
2022-12-17T22:36:25.824Z,46.00
2022-12-17T22:38:04.767Z,48.23
2022-12-17T22:44:28.437Z,52.73
2022-12-17T22:44:49.261Z,48.17
2022-12-17T22:46:27.092Z,50.10
2022-12-17T22:48:56.388Z,50.07
2022-12-17T22:51:39.659Z,48.10
2022-12-17T22:54:13.502Z,48.73
2022-12-17T22:57:35.180Z,51.73
2022-12-17T22:59:31.300Z,52.97
2022-12-17T23:01:58.769Z,52.57
2022-12-17T23:04:26.411Z,52.97
2022-12-17T23:06:53.827Z,55.03
2022-12-17T23:09:21.396Z,49.90
2022-12-17T23:11:49.616Z,51.30
2022-12-17T23:14:18.039Z,54.80
2022-12-17T23:16:46.073Z,54.13
2022-12-17T23:19:13.916Z,59.80
2022-12-17T23:21:41.813Z,50.83
2022-12-17T23:24:09.524Z,47.70
2022-12-17T23:26:37.539Z,48.87
2022-12-17T23:29:10.297Z,52.73
2022-12-17T23:31:42.564Z,50.63
2022-12-17T23:34:10.253Z,44.90
2022-12-17T23:36:37.856Z,42.03
2022-12-17T23:39:05.903Z,44.07
2022-12-17T23:41:33.447Z,48.73
2022-12-17T23:44:01.523Z,46.57
2022-12-17T23:46:30.912Z,42.70
2022-12-17T23:48:58.402Z,45.33
2022-12-17T23:51:26.875Z,46.87
2022-12-17T23:53:54.339Z,46.47
2022-12-17T23:56:28.063Z,46.93
2022-12-17T23:58:59.839Z,49.43
